< < Back
Terminal Aerodrome Forecast


Current Version              Previous Versions:   1  2  3  4  5  6  7  8  9  

Terminal Aerodrome Forecast

953
FTUS42 KILM 261700
TAFILM
TAF
KILM 261720Z 2618/2718 29011KT P6SM SCT020 SCT060
     FM262200 31010G17KT P6SM VCSH BKN030 BKN060
      TEMPO 2700/2704 -SHRA
     FM270600 32012G18KT P6SM BKN020 BKN050=

Latest METAR

211
SAUS70 KWBC 270758
MTRILM
METAR KILM 270753Z AUTO 33011KT 10SM -RA OVC016 07/04 A2968 RMK AO2
RAB43 SLP049 P0000 T00720044


USA.gov is the U.S. government's official web portal to all federal, state and local government web resources and services.